Artesia Wells, Texas
Current Conditions -  °F | °C
As of 2:53 PM on Saturday 25 Oct 2014 (Local Time) from KCOT Reporting Station
Clear Clear  
Wind Chill: 89°   Ceiling: Unl
Heat Index: 89°   Visibility: 10mi
Dew Point: 55°   Wind: 6mph
Humidity: 31%   Direction: NA
Pressure: 30.09"   Gusts: NA
Location:  28.28°N, 99.29°W
Report Text: KCOT 251953Z AUTO VRB05KT 10SM CLR 32/13 A3009 RMK AO2 SLP182 T03170128
Loading
Personal Weather Stations






























Interactive Weather Map
Tropical Storm Tracking
New forecast layout! Learn more

10-Day Weather Forecast

Advertisements
Track Severe Weather on mobile